Unicom:                    122.8

AWOS:                  118.275

Elevation           1458’ MSL

TPA:                   2500’ MSL

06/24:         5003’ L   75’ W

PAPI:       06/Left     24/Left

(Operate lights on unicom freq.)

Traffic Pattern: Left

Beacon: Sunset to Sunrise

Windsock: yes, lighted

Segmented Circle: No

 

Cleveland Center: 126.72/291.65

FSS: Altoona

[Source: ADDS]
METAR
KFKL 292156Z AUTO VRB04KT 10SM OVC021 M02/M06 A3011 RMK AO2 SLP217 T10221056 FZRANO =
KFKL 291921Z 2919/3018 32003KT P6SM BKN018 FM300000 04003KT P6SM SCT020 FM301400 09003KT P6SM OVC050
TAF
KFKL 291921Z 2919/3018 32003KT P6SM BKN018 FM300000 04003KT P6SM SCT020 FM301400 09003KT P6SM OVC050 =
[Source: ADDS]
METAR
KDUJ 292153Z AUTO 04004KT 10SM CLR 00/M09 A3005 RMK AO2 SLP196 T00001089 =
KDUJ 291732Z 2918/3018 32004KT P6SM BKN025 FM291900 35006KT P6SM OVC040 FM300000 03003KT P6SM BKN250 FM301500 08005KT P6SM OVC100
TAF
KDUJ 291732Z 2918/3018 32004KT P6SM BKN025 FM291900 35006KT P6SM OVC040 FM300000 03003KT P6SM BKN250 FM301500 08005KT P6SM OVC100 =

Airport Information. 

Runway Length: 5003ft x 75ft

Runways 6/24

Traffic Pattern: Left

PAPI’s: 2 light PAPI on left of both 6/24

TPA: 2500 msl

Field Elevation: 1458 msl

Surface: Asphalt

Beacon: Operates Sunset-Sunrise

Pilot Controlled Lighting:  yes 122.8

 

Fuel:

Jet-A w/prist

100 LL

Center point fueling available upon request.

 

Unicom Frequency: 122.8

AWOS Frequency: 118.27  (814-227-2899)

 

Cleveland Center: 126.72 (440-774-0442)

 

GPS Approach Plates for 6/24 download here: http://www.airnav.com/airport/KAXQ

[Source: ADDS]
METAR
KFKL 292156Z AUTO VRB04KT 10SM OVC021 M02/M06 A3011 RMK AO2 SLP217 T10221056 FZRANO =
KFKL 291921Z 2919/3018 32003KT P6SM BKN018 FM300000 04003KT P6SM SCT020 FM301400 09003KT P6SM OVC050
TAF
KFKL 291921Z 2919/3018 32003KT P6SM BKN018 FM300000 04003KT P6SM SCT020 FM301400 09003KT P6SM OVC050 =
[Source: ADDS]
METAR
KDUJ 292153Z AUTO 04004KT 10SM CLR 00/M09 A3005 RMK AO2 SLP196 T00001089 =
KDUJ 291732Z 2918/3018 32004KT P6SM BKN025 FM291900 35006KT P6SM OVC040 FM300000 03003KT P6SM BKN250 FM301500 08005KT P6SM OVC100
TAF
KDUJ 291732Z 2918/3018 32004KT P6SM BKN025 FM291900 35006KT P6SM OVC040 FM300000 03003KT P6SM BKN250 FM301500 08005KT P6SM OVC100 =